sensor_id;sensor_type;location;lat;lon;timestamp;P1;durP1;ratioP1;P2;durP2;ratioP2
20415;SDS011;10367;52.202;5.996;2023-11-18T00:02:25;36.57;;;16.30;;
20415;SDS011;10367;52.202;5.996;2023-11-18T00:04:54;37.97;;;20.20;;
20415;SDS011;10367;52.202;5.996;2023-11-18T00:07:29;42.53;;;19.47;;
20415;SDS011;10367;52.202;5.996;2023-11-18T00:09:59;45.27;;;20.53;;
20415;SDS011;10367;52.202;5.996;2023-11-18T00:12:28;52.13;;;21.17;;
20415;SDS011;10367;52.202;5.996;2023-11-18T00:15:00;49.40;;;21.93;;
20415;SDS011;10367;52.202;5.996;2023-11-18T00:17:32;34.80;;;17.90;;
20415;SDS011;10367;52.202;5.996;2023-11-18T00:20:01;40.10;;;21.13;;
20415;SDS011;10367;52.202;5.996;2023-11-18T00:22:36;41.60;;;19.67;;
20415;SDS011;10367;52.202;5.996;2023-11-18T00:25:05;50.87;;;22.60;;
20415;SDS011;10367;52.202;5.996;2023-11-18T00:27:36;44.77;;;21.77;;
20415;SDS011;10367;52.202;5.996;2023-11-18T00:30:07;50.00;;;23.17;;
20415;SDS011;10367;52.202;5.996;2023-11-18T00:32:42;46.03;;;20.60;;
20415;SDS011;10367;52.202;5.996;2023-11-18T00:35:15;41.77;;;21.40;;
20415;SDS011;10367;52.202;5.996;2023-11-18T00:37:44;43.63;;;20.07;;
20415;SDS011;10367;52.202;5.996;2023-11-18T00:40:15;47.90;;;21.87;;
20415;SDS011;10367;52.202;5.996;2023-11-18T00:42:45;43.37;;;20.80;;
20415;SDS011;10367;52.202;5.996;2023-11-18T00:45:19;39.57;;;19.97;;
20415;SDS011;10367;52.202;5.996;2023-11-18T00:47:49;38.50;;;19.93;;
20415;SDS011;10367;52.202;5.996;2023-11-18T00:50:19;49.63;;;21.00;;
20415;SDS011;10367;52.202;5.996;2023-11-18T00:52:48;43.03;;;20.20;;
20415;SDS011;10367;52.202;5.996;2023-11-18T00:55:17;36.77;;;17.63;;
20415;SDS011;10367;52.202;5.996;2023-11-18T00:57:48;41.80;;;21.07;;
20415;SDS011;10367;52.202;5.996;2023-11-18T01:00:17;38.93;;;20.13;;
20415;SDS011;10367;52.202;5.996;2023-11-18T01:02:50;42.83;;;21.47;;
20415;SDS011;10367;52.202;5.996;2023-11-18T01:05:20;45.57;;;21.77;;
20415;SDS011;10367;52.202;5.996;2023-11-18T01:07:50;42.90;;;22.07;;
20415;SDS011;10367;52.202;5.996;2023-11-18T01:10:22;46.77;;;22.50;;
20415;SDS011;10367;52.202;5.996;2023-11-18T01:12:51;48.87;;;23.50;;
20415;SDS011;10367;52.202;5.996;2023-11-18T01:15:22;49.70;;;22.63;;
20415;SDS011;10367;52.202;5.996;2023-11-18T01:17:52;39.20;;;20.63;;
20415;SDS011;10367;52.202;5.996;2023-11-18T01:20:22;50.37;;;21.83;;
20415;SDS011;10367;52.202;5.996;2023-11-18T01:22:54;35.80;;;18.37;;
20415;SDS011;10367;52.202;5.996;2023-11-18T01:25:22;43.47;;;22.53;;
20415;SDS011;10367;52.202;5.996;2023-11-18T01:27:52;40.40;;;19.50;;
20415;SDS011;10367;52.202;5.996;2023-11-18T01:30:25;39.70;;;20.97;;
20415;SDS011;10367;52.202;5.996;2023-11-18T01:32:56;45.50;;;21.97;;
20415;SDS011;10367;52.202;5.996;2023-11-18T01:35:28;33.23;;;16.40;;
20415;SDS011;10367;52.202;5.996;2023-11-18T01:37:58;45.60;;;22.67;;
20415;SDS011;10367;52.202;5.996;2023-11-18T01:40:27;36.43;;;20.90;;
20415;SDS011;10367;52.202;5.996;2023-11-18T01:42:58;36.17;;;20.37;;
20415;SDS011;10367;52.202;5.996;2023-11-18T01:45:28;47.77;;;23.53;;
20415;SDS011;10367;52.202;5.996;2023-11-18T01:47:59;44.87;;;22.13;;
20415;SDS011;10367;52.202;5.996;2023-11-18T01:50:28;35.03;;;19.03;;
20415;SDS011;10367;52.202;5.996;2023-11-18T01:52:58;39.37;;;19.80;;
20415;SDS011;10367;52.202;5.996;2023-11-18T01:55:27;38.33;;;20.13;;
20415;SDS011;10367;52.202;5.996;2023-11-18T01:57:56;49.63;;;23.23;;
20415;SDS011;10367;52.202;5.996;2023-11-18T02:00:25;44.77;;;22.43;;
20415;SDS011;10367;52.202;5.996;2023-11-18T02:02:54;39.30;;;18.63;;
20415;SDS011;10367;52.202;5.996;2023-11-18T02:05:25;49.03;;;23.97;;
20415;SDS011;10367;52.202;5.996;2023-11-18T02:07:54;43.80;;;21.07;;
20415;SDS011;10367;52.202;5.996;2023-11-18T02:10:24;49.63;;;21.77;;
20415;SDS011;10367;52.202;5.996;2023-11-18T02:12:55;53.37;;;20.33;;
20415;SDS011;10367;52.202;5.996;2023-11-18T02:15:35;43.10;;;22.57;;
20415;SDS011;10367;52.202;5.996;2023-11-18T02:18:06;51.20;;;23.83;;
20415;SDS011;10367;52.202;5.996;2023-11-18T02:20:38;33.43;;;18.50;;
20415;SDS011;10367;52.202;5.996;2023-11-18T02:23:17;46.90;;;22.27;;
20415;SDS011;10367;52.202;5.996;2023-11-18T02:25:50;41.63;;;21.53;;
20415;SDS011;10367;52.202;5.996;2023-11-18T02:28:19;51.10;;;23.60;;
20415;SDS011;10367;52.202;5.996;2023-11-18T02:30:48;49.13;;;20.00;;
20415;SDS011;10367;52.202;5.996;2023-11-18T02:33:27;48.00;;;22.30;;
20415;SDS011;10367;52.202;5.996;2023-11-18T02:36:09;47.13;;;23.20;;
20415;SDS011;10367;52.202;5.996;2023-11-18T02:38:44;43.33;;;21.53;;
20415;SDS011;10367;52.202;5.996;2023-11-18T02:41:30;42.67;;;20.70;;
20415;SDS011;10367;52.202;5.996;2023-11-18T02:44:13;34.90;;;18.37;;
20415;SDS011;10367;52.202;5.996;2023-11-18T02:46:46;58.07;;;22.23;;
20415;SDS011;10367;52.202;5.996;2023-11-18T02:49:15;43.63;;;21.30;;
20415;SDS011;10367;52.202;5.996;2023-11-18T02:51:47;59.77;;;22.43;;
20415;SDS011;10367;52.202;5.996;2023-11-18T02:54:17;62.03;;;24.90;;
20415;SDS011;10367;52.202;5.996;2023-11-18T02:56:50;50.93;;;22.83;;
20415;SDS011;10367;52.202;5.996;2023-11-18T02:59:20;64.23;;;24.23;;
20415;SDS011;10367;52.202;5.996;2023-11-18T03:01:57;46.77;;;21.33;;
20415;SDS011;10367;52.202;5.996;2023-11-18T03:04:29;43.37;;;18.23;;
20415;SDS011;10367;52.202;5.996;2023-11-18T03:06:58;55.90;;;22.77;;
20415;SDS011;10367;52.202;5.996;2023-11-18T03:09:28;63.53;;;23.60;;
20415;SDS011;10367;52.202;5.996;2023-11-18T03:11:59;46.60;;;21.63;;
20415;SDS011;10367;52.202;5.996;2023-11-18T03:14:28;46.77;;;21.67;;
20415;SDS011;10367;52.202;5.996;2023-11-18T03:16:57;42.60;;;20.37;;
20415;SDS011;10367;52.202;5.996;2023-11-18T03:19:26;64.40;;;25.37;;
20415;SDS011;10367;52.202;5.996;2023-11-18T03:21:56;50.80;;;21.87;;
20415;SDS011;10367;52.202;5.996;2023-11-18T03:24:25;69.77;;;24.60;;
20415;SDS011;10367;52.202;5.996;2023-11-18T03:26:55;66.73;;;25.37;;
20415;SDS011;10367;52.202;5.996;2023-11-18T03:29:25;61.00;;;23.90;;
20415;SDS011;10367;52.202;5.996;2023-11-18T03:31:56;49.47;;;21.50;;
20415;SDS011;10367;52.202;5.996;2023-11-18T03:34:25;61.70;;;24.80;;
20415;SDS011;10367;52.202;5.996;2023-11-18T03:36:54;43.93;;;19.90;;
20415;SDS011;10367;52.202;5.996;2023-11-18T03:39:28;48.43;;;20.93;;
20415;SDS011;10367;52.202;5.996;2023-11-18T03:41:57;65.57;;;25.30;;
20415;SDS011;10367;52.202;5.996;2023-11-18T03:44:29;44.73;;;21.90;;
20415;SDS011;10367;52.202;5.996;2023-11-18T03:47:01;57.30;;;24.67;;
20415;SDS011;10367;52.202;5.996;2023-11-18T03:49:30;56.70;;;22.93;;
20415;SDS011;10367;52.202;5.996;2023-11-18T03:51:58;47.13;;;21.53;;
20415;SDS011;10367;52.202;5.996;2023-11-18T03:54:27;51.70;;;22.07;;
20415;SDS011;10367;52.202;5.996;2023-11-18T03:56:57;54.17;;;24.13;;
20415;SDS011;10367;52.202;5.996;2023-11-18T03:59:27;61.83;;;23.23;;
20415;SDS011;10367;52.202;5.996;2023-11-18T04:01:56;54.70;;;20.40;;
20415;SDS011;10367;52.202;5.996;2023-11-18T04:04:28;59.57;;;23.10;;
20415;SDS011;10367;52.202;5.996;2023-11-18T04:06:57;62.50;;;24.63;;
20415;SDS011;10367;52.202;5.996;2023-11-18T04:09:29;60.40;;;23.87;;
20415;SDS011;10367;52.202;5.996;2023-11-18T04:11:58;63.67;;;22.17;;
20415;SDS011;10367;52.202;5.996;2023-11-18T04:14:28;54.70;;;24.30;;
20415;SDS011;10367;52.202;5.996;2023-11-18T04:16:58;52.60;;;22.30;;
20415;SDS011;10367;52.202;5.996;2023-11-18T04:19:27;68.63;;;25.10;;
20415;SDS011;10367;52.202;5.996;2023-11-18T04:21:56;53.77;;;23.97;;
20415;SDS011;10367;52.202;5.996;2023-11-18T04:24:25;54.43;;;24.07;;
20415;SDS011;10367;52.202;5.996;2023-11-18T04:26:55;65.17;;;25.07;;
20415;SDS011;10367;52.202;5.996;2023-11-18T04:29:24;54.70;;;24.60;;
20415;SDS011;10367;52.202;5.996;2023-11-18T04:31:56;75.67;;;24.20;;
20415;SDS011;10367;52.202;5.996;2023-11-18T04:34:28;52.73;;;22.27;;
20415;SDS011;10367;52.202;5.996;2023-11-18T04:36:59;51.67;;;22.00;;
20415;SDS011;10367;52.202;5.996;2023-11-18T04:39:28;50.20;;;21.63;;
20415;SDS011;10367;52.202;5.996;2023-11-18T04:42:00;43.43;;;20.33;;
20415;SDS011;10367;52.202;5.996;2023-11-18T04:44:29;61.77;;;24.20;;
20415;SDS011;10367;52.202;5.996;2023-11-18T04:47:00;51.03;;;22.00;;
20415;SDS011;10367;52.202;5.996;2023-11-18T04:49:29;44.40;;;21.50;;
20415;SDS011;10367;52.202;5.996;2023-11-18T04:51:58;54.33;;;21.93;;
20415;SDS011;10367;52.202;5.996;2023-11-18T04:54:27;69.13;;;25.97;;
20415;SDS011;10367;52.202;5.996;2023-11-18T04:56:56;46.03;;;21.93;;
20415;SDS011;10367;52.202;5.996;2023-11-18T04:59:25;62.40;;;25.30;;
20415;SDS011;10367;52.202;5.996;2023-11-18T05:01:54;67.80;;;24.33;;
20415;SDS011;10367;52.202;5.996;2023-11-18T05:04:25;67.77;;;27.47;;
20415;SDS011;10367;52.202;5.996;2023-11-18T05:06:53;52.83;;;22.73;;
20415;SDS011;10367;52.202;5.996;2023-11-18T05:09:22;44.93;;;22.90;;
20415;SDS011;10367;52.202;5.996;2023-11-18T05:11:51;48.40;;;22.60;;
20415;SDS011;10367;52.202;5.996;2023-11-18T05:14:20;67.40;;;25.03;;
20415;SDS011;10367;52.202;5.996;2023-11-18T05:16:51;50.73;;;22.00;;
20415;SDS011;10367;52.202;5.996;2023-11-18T05:19:20;66.67;;;26.10;;
20415;SDS011;10367;52.202;5.996;2023-11-18T05:21:51;46.50;;;20.63;;
20415;SDS011;10367;52.202;5.996;2023-11-18T05:24:23;46.43;;;21.77;;
20415;SDS011;10367;52.202;5.996;2023-11-18T05:26:55;63.63;;;25.27;;
20415;SDS011;10367;52.202;5.996;2023-11-18T05:29:24;58.10;;;26.00;;
20415;SDS011;10367;52.202;5.996;2023-11-18T05:31:54;62.80;;;21.87;;
20415;SDS011;10367;52.202;5.996;2023-11-18T05:34:25;61.37;;;26.83;;
20415;SDS011;10367;52.202;5.996;2023-11-18T05:37:01;47.87;;;22.07;;
20415;SDS011;10367;52.202;5.996;2023-11-18T05:39:37;51.57;;;23.07;;
20415;SDS011;10367;52.202;5.996;2023-11-18T05:42:09;51.60;;;23.13;;
20415;SDS011;10367;52.202;5.996;2023-11-18T05:44:38;46.93;;;22.37;;
20415;SDS011;10367;52.202;5.996;2023-11-18T05:47:08;57.70;;;24.80;;
20415;SDS011;10367;52.202;5.996;2023-11-18T05:49:39;45.30;;;22.13;;
20415;SDS011;10367;52.202;5.996;2023-11-18T05:52:10;57.17;;;24.87;;
20415;SDS011;10367;52.202;5.996;2023-11-18T05:54:38;60.87;;;24.30;;
20415;SDS011;10367;52.202;5.996;2023-11-18T05:57:07;53.77;;;25.63;;
20415;SDS011;10367;52.202;5.996;2023-11-18T05:59:36;53.17;;;23.20;;
20415;SDS011;10367;52.202;5.996;2023-11-18T06:02:05;55.93;;;23.93;;
20415;SDS011;10367;52.202;5.996;2023-11-18T06:04:38;52.80;;;24.37;;
20415;SDS011;10367;52.202;5.996;2023-11-18T06:07:10;54.03;;;23.43;;
20415;SDS011;10367;52.202;5.996;2023-11-18T06:09:40;47.47;;;21.97;;
20415;SDS011;10367;52.202;5.996;2023-11-18T06:12:10;52.90;;;23.53;;
20415;SDS011;10367;52.202;5.996;2023-11-18T06:14:39;53.93;;;26.33;;
20415;SDS011;10367;52.202;5.996;2023-11-18T06:17:12;58.07;;;25.07;;
20415;SDS011;10367;52.202;5.996;2023-11-18T06:19:41;47.33;;;21.37;;
20415;SDS011;10367;52.202;5.996;2023-11-18T06:22:12;46.80;;;24.40;;
20415;SDS011;10367;52.202;5.996;2023-11-18T06:24:41;57.20;;;25.40;;
20415;SDS011;10367;52.202;5.996;2023-11-18T06:27:09;54.53;;;24.33;;
20415;SDS011;10367;52.202;5.996;2023-11-18T06:29:41;55.20;;;23.70;;
20415;SDS011;10367;52.202;5.996;2023-11-18T06:32:12;47.93;;;21.20;;
20415;SDS011;10367;52.202;5.996;2023-11-18T06:34:43;41.90;;;22.00;;
20415;SDS011;10367;52.202;5.996;2023-11-18T06:37:13;60.23;;;24.17;;
20415;SDS011;10367;52.202;5.996;2023-11-18T06:39:44;53.63;;;23.90;;
20415;SDS011;10367;52.202;5.996;2023-11-18T06:42:15;53.80;;;24.57;;
20415;SDS011;10367;52.202;5.996;2023-11-18T06:44:44;53.40;;;25.20;;
20415;SDS011;10367;52.202;5.996;2023-11-18T06:47:15;49.97;;;21.77;;
20415;SDS011;10367;52.202;5.996;2023-11-18T06:49:46;41.77;;;21.57;;
20415;SDS011;10367;52.202;5.996;2023-11-18T06:52:17;57.00;;;24.47;;
20415;SDS011;10367;52.202;5.996;2023-11-18T06:54:46;53.27;;;25.07;;
20415;SDS011;10367;52.202;5.996;2023-11-18T06:57:20;52.37;;;23.97;;
20415;SDS011;10367;52.202;5.996;2023-11-18T06:59:49;55.23;;;23.47;;
20415;SDS011;10367;52.202;5.996;2023-11-18T07:02:18;49.03;;;24.03;;
20415;SDS011;10367;52.202;5.996;2023-11-18T07:04:48;52.70;;;25.20;;
20415;SDS011;10367;52.202;5.996;2023-11-18T07:07:19;47.57;;;23.57;;
20415;SDS011;10367;52.202;5.996;2023-11-18T07:09:50;47.57;;;21.97;;
20415;SDS011;10367;52.202;5.996;2023-11-18T07:12:31;49.47;;;21.83;;
20415;SDS011;10367;52.202;5.996;2023-11-18T07:15:05;47.33;;;24.83;;
20415;SDS011;10367;52.202;5.996;2023-11-18T07:17:37;46.13;;;22.67;;
20415;SDS011;10367;52.202;5.996;2023-11-18T07:20:07;48.67;;;24.70;;
20415;SDS011;10367;52.202;5.996;2023-11-18T07:22:41;43.47;;;23.97;;
20415;SDS011;10367;52.202;5.996;2023-11-18T07:25:10;48.47;;;23.73;;
20415;SDS011;10367;52.202;5.996;2023-11-18T07:27:40;50.23;;;23.47;;
20415;SDS011;10367;52.202;5.996;2023-11-18T07:30:09;47.67;;;24.03;;
20415;SDS011;10367;52.202;5.996;2023-11-18T07:32:39;46.93;;;23.27;;
20415;SDS011;10367;52.202;5.996;2023-11-18T07:35:08;52.57;;;23.37;;
20415;SDS011;10367;52.202;5.996;2023-11-18T07:37:37;54.37;;;25.20;;
20415;SDS011;10367;52.202;5.996;2023-11-18T07:40:08;55.00;;;25.93;;
20415;SDS011;10367;52.202;5.996;2023-11-18T07:42:39;47.20;;;22.60;;
20415;SDS011;10367;52.202;5.996;2023-11-18T07:45:12;35.33;;;20.27;;
20415;SDS011;10367;52.202;5.996;2023-11-18T07:47:46;40.93;;;21.40;;
20415;SDS011;10367;52.202;5.996;2023-11-18T07:50:17;50.30;;;22.37;;
20415;SDS011;10367;52.202;5.996;2023-11-18T07:52:47;40.20;;;21.17;;
20415;SDS011;10367;52.202;5.996;2023-11-18T07:55:19;48.23;;;20.70;;
20415;SDS011;10367;52.202;5.996;2023-11-18T07:57:50;41.57;;;22.23;;
20415;SDS011;10367;52.202;5.996;2023-11-18T08:00:19;46.80;;;22.37;;
20415;SDS011;10367;52.202;5.996;2023-11-18T08:02:50;38.30;;;21.37;;
20415;SDS011;10367;52.202;5.996;2023-11-18T08:05:34;41.47;;;21.90;;
20415;SDS011;10367;52.202;5.996;2023-11-18T08:08:05;43.10;;;23.47;;
20415;SDS011;10367;52.202;5.996;2023-11-18T08:10:37;44.63;;;21.90;;
20415;SDS011;10367;52.202;5.996;2023-11-18T08:13:10;32.13;;;19.23;;
20415;SDS011;10367;52.202;5.996;2023-11-18T08:15:40;35.73;;;20.73;;
20415;SDS011;10367;52.202;5.996;2023-11-18T08:18:12;40.40;;;22.57;;
20415;SDS011;10367;52.202;5.996;2023-11-18T08:20:44;39.83;;;21.40;;
20415;SDS011;10367;52.202;5.996;2023-11-18T08:23:13;34.30;;;19.77;;
20415;SDS011;10367;52.202;5.996;2023-11-18T08:25:44;43.37;;;20.10;;
20415;SDS011;10367;52.202;5.996;2023-11-18T08:28:13;37.83;;;21.27;;
20415;SDS011;10367;52.202;5.996;2023-11-18T08:30:42;38.50;;;18.63;;
20415;SDS011;10367;52.202;5.996;2023-11-18T08:33:11;36.77;;;19.57;;
20415;SDS011;10367;52.202;5.996;2023-11-18T08:35:40;33.70;;;17.73;;
20415;SDS011;10367;52.202;5.996;2023-11-18T08:38:10;31.07;;;18.70;;
20415;SDS011;10367;52.202;5.996;2023-11-18T08:40:39;38.10;;;18.77;;
20415;SDS011;10367;52.202;5.996;2023-11-18T08:43:12;29.03;;;16.57;;
20415;SDS011;10367;52.202;5.996;2023-11-18T08:45:43;31.73;;;18.47;;
20415;SDS011;10367;52.202;5.996;2023-11-18T08:48:20;40.07;;;20.73;;
20415;SDS011;10367;52.202;5.996;2023-11-18T08:50:50;32.23;;;18.77;;
20415;SDS011;10367;52.202;5.996;2023-11-18T08:53:28;34.53;;;18.97;;
20415;SDS011;10367;52.202;5.996;2023-11-18T08:56:02;39.80;;;18.13;;
20415;SDS011;10367;52.202;5.996;2023-11-18T08:58:34;38.87;;;21.07;;
20415;SDS011;10367;52.202;5.996;2023-11-18T09:01:05;34.00;;;17.30;;
20415;SDS011;10367;52.202;5.996;2023-11-18T09:03:41;34.63;;;17.00;;
20415;SDS011;10367;52.202;5.996;2023-11-18T09:06:20;36.13;;;18.47;;
20415;SDS011;10367;52.202;5.996;2023-11-18T09:08:55;32.87;;;18.90;;
20415;SDS011;10367;52.202;5.996;2023-11-18T09:11:25;44.80;;;21.13;;
20415;SDS011;10367;52.202;5.996;2023-11-18T09:14:01;34.67;;;18.13;;
20415;SDS011;10367;52.202;5.996;2023-11-18T09:16:31;41.10;;;20.37;;
20415;SDS011;10367;52.202;5.996;2023-11-18T09:19:08;38.07;;;18.37;;
20415;SDS011;10367;52.202;5.996;2023-11-18T09:21:38;35.73;;;19.30;;
20415;SDS011;10367;52.202;5.996;2023-11-18T09:24:07;38.13;;;19.30;;
20415;SDS011;10367;52.202;5.996;2023-11-18T09:26:39;42.00;;;18.23;;
20415;SDS011;10367;52.202;5.996;2023-11-18T09:29:12;32.77;;;18.93;;
20415;SDS011;10367;52.202;5.996;2023-11-18T09:31:45;39.27;;;19.13;;
20415;SDS011;10367;52.202;5.996;2023-11-18T09:34:16;37.13;;;17.77;;
20415;SDS011;10367;52.202;5.996;2023-11-18T09:36:45;43.80;;;17.70;;
20415;SDS011;10367;52.202;5.996;2023-11-18T09:39:16;36.93;;;18.00;;
20415;SDS011;10367;52.202;5.996;2023-11-18T09:41:57;34.83;;;18.17;;
20415;SDS011;10367;52.202;5.996;2023-11-18T09:44:32;37.03;;;19.27;;
20415;SDS011;10367;52.202;5.996;2023-11-18T09:47:01;27.60;;;16.37;;
20415;SDS011;10367;52.202;5.996;2023-11-18T09:49:39;42.20;;;20.47;;
20415;SDS011;10367;52.202;5.996;2023-11-18T09:52:15;43.43;;;19.97;;
20415;SDS011;10367;52.202;5.996;2023-11-18T09:54:50;35.27;;;18.53;;
20415;SDS011;10367;52.202;5.996;2023-11-18T09:57:31;34.07;;;18.57;;
20415;SDS011;10367;52.202;5.996;2023-11-18T10:00:06;33.00;;;18.70;;
20415;SDS011;10367;52.202;5.996;2023-11-18T10:02:48;34.13;;;18.17;;
20415;SDS011;10367;52.202;5.996;2023-11-18T10:05:19;39.13;;;20.17;;
20415;SDS011;10367;52.202;5.996;2023-11-18T10:07:54;31.10;;;18.00;;
20415;SDS011;10367;52.202;5.996;2023-11-18T10:10:25;33.60;;;18.37;;
20415;SDS011;10367;52.202;5.996;2023-11-18T10:13:04;31.73;;;17.47;;
20415;SDS011;10367;52.202;5.996;2023-11-18T10:15:47;40.27;;;17.70;;
20415;SDS011;10367;52.202;5.996;2023-11-18T10:18:19;39.13;;;18.50;;
20415;SDS011;10367;52.202;5.996;2023-11-18T10:20:52;36.73;;;16.67;;
20415;SDS011;10367;52.202;5.996;2023-11-18T10:23:22;27.43;;;17.83;;
20415;SDS011;10367;52.202;5.996;2023-11-18T10:25:56;32.93;;;16.83;;
20415;SDS011;10367;52.202;5.996;2023-11-18T10:28:31;29.47;;;16.13;;
20415;SDS011;10367;52.202;5.996;2023-11-18T10:31:05;28.27;;;15.20;;
20415;SDS011;10367;52.202;5.996;2023-11-18T10:33:37;35.17;;;17.77;;
20415;SDS011;10367;52.202;5.996;2023-11-18T10:36:17;23.40;;;15.27;;
20415;SDS011;10367;52.202;5.996;2023-11-18T10:38:52;36.17;;;17.63;;
20415;SDS011;10367;52.202;5.996;2023-11-18T10:41:27;27.13;;;15.43;;
20415;SDS011;10367;52.202;5.996;2023-11-18T10:44:05;29.13;;;15.87;;
20415;SDS011;10367;52.202;5.996;2023-11-18T10:46:36;34.40;;;16.47;;
20415;SDS011;10367;52.202;5.996;2023-11-18T10:49:05;32.20;;;15.83;;
20415;SDS011;10367;52.202;5.996;2023-11-18T10:51:37;33.93;;;18.27;;
20415;SDS011;10367;52.202;5.996;2023-11-18T10:54:08;24.60;;;15.40;;
20415;SDS011;10367;52.202;5.996;2023-11-18T10:56:47;24.90;;;16.47;;
20415;SDS011;10367;52.202;5.996;2023-11-18T10:59:17;27.67;;;14.83;;
20415;SDS011;10367;52.202;5.996;2023-11-18T11:01:56;24.60;;;16.10;;
20415;SDS011;10367;52.202;5.996;2023-11-18T11:04:26;27.07;;;16.60;;
20415;SDS011;10367;52.202;5.996;2023-11-18T11:07:10;20.80;;;14.63;;
20415;SDS011;10367;52.202;5.996;2023-11-18T11:09:44;23.47;;;15.23;;
20415;SDS011;10367;52.202;5.996;2023-11-18T11:12:13;20.80;;;13.73;;
20415;SDS011;10367;52.202;5.996;2023-11-18T11:14:46;21.97;;;14.13;;
20415;SDS011;10367;52.202;5.996;2023-11-18T11:17:24;23.50;;;14.87;;
20415;SDS011;10367;52.202;5.996;2023-11-18T11:20:04;31.30;;;15.00;;
20415;SDS011;10367;52.202;5.996;2023-11-18T11:22:46;25.57;;;15.90;;
20415;SDS011;10367;52.202;5.996;2023-11-18T11:25:28;24.73;;;14.93;;
20415;SDS011;10367;52.202;5.996;2023-11-18T11:28:05;23.93;;;15.50;;
20415;SDS011;10367;52.202;5.996;2023-11-18T11:30:42;30.07;;;16.70;;
20415;SDS011;10367;52.202;5.996;2023-11-18T11:33:17;26.23;;;14.60;;
20415;SDS011;10367;52.202;5.996;2023-11-18T11:35:55;24.00;;;16.03;;
20415;SDS011;10367;52.202;5.996;2023-11-18T11:38:25;24.37;;;14.87;;
20415;SDS011;10367;52.202;5.996;2023-11-18T11:40:57;25.67;;;13.67;;
20415;SDS011;10367;52.202;5.996;2023-11-18T11:43:32;26.43;;;15.73;;
20415;SDS011;10367;52.202;5.996;2023-11-18T11:46:02;22.90;;;14.17;;
20415;SDS011;10367;52.202;5.996;2023-11-18T11:48:39;25.10;;;16.40;;
20415;SDS011;10367;52.202;5.996;2023-11-18T11:51:19;23.47;;;14.27;;
20415;SDS011;10367;52.202;5.996;2023-11-18T11:54:01;20.47;;;13.80;;
20415;SDS011;10367;52.202;5.996;2023-11-18T11:56:43;22.97;;;14.87;;
20415;SDS011;10367;52.202;5.996;2023-11-18T11:59:15;23.33;;;14.90;;
20415;SDS011;10367;52.202;5.996;2023-11-18T12:01:44;23.30;;;14.47;;
20415;SDS011;10367;52.202;5.996;2023-11-18T12:04:26;25.57;;;14.63;;
20415;SDS011;10367;52.202;5.996;2023-11-18T12:06:57;24.30;;;14.37;;
20415;SDS011;10367;52.202;5.996;2023-11-18T12:09:41;27.43;;;14.07;;
20415;SDS011;10367;52.202;5.996;2023-11-18T12:12:16;17.37;;;13.23;;
20415;SDS011;10367;52.202;5.996;2023-11-18T12:14:58;28.27;;;14.83;;
20415;SDS011;10367;52.202;5.996;2023-11-18T12:20:42;20.57;;;14.17;;
20415;SDS011;10367;52.202;5.996;2023-11-18T12:23:16;34.63;;;15.93;;
20415;SDS011;10367;52.202;5.996;2023-11-18T12:25:48;24.43;;;14.83;;
20415;SDS011;10367;52.202;5.996;2023-11-18T12:28:25;25.17;;;14.77;;
20415;SDS011;10367;52.202;5.996;2023-11-18T12:30:55;21.40;;;14.53;;
20415;SDS011;10367;52.202;5.996;2023-11-18T12:33:25;23.37;;;14.80;;
20415;SDS011;10367;52.202;5.996;2023-11-18T12:36:31;21.30;;;14.80;;
20415;SDS011;10367;52.202;5.996;2023-11-18T12:45:36;20.80;;;13.77;;
20415;SDS011;10367;52.202;5.996;2023-11-18T12:48:14;23.93;;;13.90;;
20415;SDS011;10367;52.202;5.996;2023-11-18T12:50:51;15.93;;;13.07;;
20415;SDS011;10367;52.202;5.996;2023-11-18T12:53:24;23.07;;;14.53;;
20415;SDS011;10367;52.202;5.996;2023-11-18T12:55:55;18.60;;;13.97;;
20415;SDS011;10367;52.202;5.996;2023-11-18T12:58:29;24.03;;;13.37;;
20415;SDS011;10367;52.202;5.996;2023-11-18T13:01:00;19.73;;;13.07;;
20415;SDS011;10367;52.202;5.996;2023-11-18T13:03:34;25.93;;;14.93;;
20415;SDS011;10367;52.202;5.996;2023-11-18T13:06:05;20.27;;;13.93;;
20415;SDS011;10367;52.202;5.996;2023-11-18T13:08:37;17.97;;;13.90;;
20415;SDS011;10367;52.202;5.996;2023-11-18T13:11:06;19.83;;;12.63;;
20415;SDS011;10367;52.202;5.996;2023-11-18T13:13:43;21.73;;;13.73;;
20415;SDS011;10367;52.202;5.996;2023-11-18T13:16:15;20.60;;;12.60;;
20415;SDS011;10367;52.202;5.996;2023-11-18T13:18:46;21.90;;;14.77;;
20415;SDS011;10367;52.202;5.996;2023-11-18T13:21:17;15.53;;;11.87;;
20415;SDS011;10367;52.202;5.996;2023-11-18T13:23:52;23.37;;;12.67;;
20415;SDS011;10367;52.202;5.996;2023-11-18T13:26:22;23.00;;;13.13;;
20415;SDS011;10367;52.202;5.996;2023-11-18T13:28:54;16.03;;;12.47;;
20415;SDS011;10367;52.202;5.996;2023-11-18T13:31:23;18.67;;;12.40;;
20415;SDS011;10367;52.202;5.996;2023-11-18T13:33:52;16.47;;;12.57;;
20415;SDS011;10367;52.202;5.996;2023-11-18T13:36:21;17.10;;;12.47;;
20415;SDS011;10367;52.202;5.996;2023-11-18T13:38:53;15.70;;;11.47;;
20415;SDS011;10367;52.202;5.996;2023-11-18T13:41:28;13.73;;;12.20;;
20415;SDS011;10367;52.202;5.996;2023-11-18T13:43:59;14.87;;;11.70;;
20415;SDS011;10367;52.202;5.996;2023-11-18T13:46:29;18.90;;;12.33;;
20415;SDS011;10367;52.202;5.996;2023-11-18T13:48:58;16.20;;;11.80;;
20415;SDS011;10367;52.202;5.996;2023-11-18T13:51:27;13.70;;;11.77;;
20415;SDS011;10367;52.202;5.996;2023-11-18T13:53:58;18.47;;;12.60;;
20415;SDS011;10367;52.202;5.996;2023-11-18T13:56:28;13.97;;;12.43;;
20415;SDS011;10367;52.202;5.996;2023-11-18T13:58:57;13.03;;;10.37;;
20415;SDS011;10367;52.202;5.996;2023-11-18T14:01:27;13.80;;;12.43;;
20415;SDS011;10367;52.202;5.996;2023-11-18T14:03:56;23.13;;;12.23;;
20415;SDS011;10367;52.202;5.996;2023-11-18T14:06:32;12.00;;;10.63;;
20415;SDS011;10367;52.202;5.996;2023-11-18T14:09:05;12.93;;;11.27;;
20415;SDS011;10367;52.202;5.996;2023-11-18T14:11:37;15.27;;;12.70;;
20415;SDS011;10367;52.202;5.996;2023-11-18T14:14:06;17.13;;;12.40;;
20415;SDS011;10367;52.202;5.996;2023-11-18T14:16:36;19.60;;;12.20;;
20415;SDS011;10367;52.202;5.996;2023-11-18T14:19:07;12.07;;;10.77;;
20415;SDS011;10367;52.202;5.996;2023-11-18T14:21:37;16.03;;;12.37;;
20415;SDS011;10367;52.202;5.996;2023-11-18T14:24:08;12.50;;;10.73;;
20415;SDS011;10367;52.202;5.996;2023-11-18T14:26:37;15.77;;;12.20;;
20415;SDS011;10367;52.202;5.996;2023-11-18T14:29:08;12.63;;;10.67;;
20415;SDS011;10367;52.202;5.996;2023-11-18T14:31:38;14.17;;;12.33;;
20415;SDS011;10367;52.202;5.996;2023-11-18T14:34:07;11.83;;;10.67;;
20415;SDS011;10367;52.202;5.996;2023-11-18T14:36:37;13.73;;;12.27;;
20415;SDS011;10367;52.202;5.996;2023-11-18T14:39:06;12.53;;;11.23;;
20415;SDS011;10367;52.202;5.996;2023-11-18T14:41:40;15.57;;;12.17;;
20415;SDS011;10367;52.202;5.996;2023-11-18T14:44:17;13.63;;;11.70;;
20415;SDS011;10367;52.202;5.996;2023-11-18T14:46:47;15.57;;;13.17;;
20415;SDS011;10367;52.202;5.996;2023-11-18T14:49:17;11.90;;;10.77;;
20415;SDS011;10367;52.202;5.996;2023-11-18T14:51:55;19.43;;;13.13;;
20415;SDS011;10367;52.202;5.996;2023-11-18T14:54:26;13.10;;;11.67;;
20415;SDS011;10367;52.202;5.996;2023-11-18T14:56:57;16.00;;;11.57;;
20415;SDS011;10367;52.202;5.996;2023-11-18T14:59:27;13.00;;;10.93;;